Time;durP1;ratioP1;P1;durP2;ratioP2;P2;SDS_P1;SDS_P2;PMS_P1;PMS_P2;Temp;Humidity;BMP_temperature;BMP_pressure;BME280_temperature;BME280_humidity;BME280_pressure;Samples;Min_cycle;Max_cycle;Signal;HPM_P1;HPM_P2
2022/01/17 00:00:36;;;;;;;;;;;19.10;30.60;;;;;;492340;242;1278;-76
2022/01/17 00:02:36;;;;;;;;;;;19.10;30.50;;;;;;492495;241;1312;-76
2022/01/17 00:04:37;;;;;;;;;;;19.10;30.60;;;;;;492487;241;976;-76
2022/01/17 00:06:39;;;;;;;;;;;19.10;30.50;;;;;;492386;241;1183;-76
2022/01/17 00:08:42;;;;;;;;;;;19.10;30.50;;;;;;492611;241;1127;-76
2022/01/17 00:10:43;;;;;;;;;;;19.10;30.40;;;;;;492860;242;1209;-76
2022/01/17 00:12:46;;;;;;;;;;;19.20;30.40;;;;;;492881;242;1234;-76
2022/01/17 00:14:46;;;;;;;;;;;19.20;30.40;;;;;;492848;242;2194;-76
2022/01/17 00:16:52;;;;;;;;;;;19.10;30.40;;;;;;492840;242;1225;-76
2022/01/17 00:21:27;;;;;;;;;;;19.00;30.50;;;;;;472819;252;1343;-76
2022/01/17 00:23:28;;;;;;;;;;;19.10;30.50;;;;;;472914;252;1071;-76
2022/01/17 00:25:30;;;;;;;;;;;19.10;30.60;;;;;;472938;252;1201;-76
2022/01/17 00:27:32;;;;;;;;;;;19.10;30.60;;;;;;490975;242;1221;-76
2022/01/17 00:29:33;;;;;;;;;;;19.00;30.50;;;;;;492902;242;1401;-76
2022/01/17 00:31:34;;;;;;;;;;;19.10;30.50;;;;;;492822;242;1160;-76
2022/01/17 00:33:35;;;;;;;;;;;19.00;30.50;;;;;;493007;241;2132;-76
2022/01/17 00:35:37;;;;;;;;;;;19.10;30.60;;;;;;492898;242;1122;-76
2022/01/17 00:37:38;;;;;;;;;;;19.10;30.50;;;;;;492912;241;1172;-76
2022/01/17 00:39:39;;;;;;;;;;;19.20;30.40;;;;;;492917;242;1114;-76
2022/01/17 00:41:41;;;;;;;;;;;19.30;30.20;;;;;;492906;241;1074;-76
2022/01/17 00:43:42;;;;;;;;;;;19.20;30.30;;;;;;492891;241;1022;-76
2022/01/17 00:45:44;;;;;;;;;;;19.20;30.40;;;;;;492831;242;974;-76
2022/01/17 00:47:45;;;;;;;;;;;19.10;30.40;;;;;;492912;241;1953;-76
2022/01/17 00:49:46;;;;;;;;;;;19.00;30.40;;;;;;492828;242;1278;-76
2022/01/17 00:51:47;;;;;;;;;;;19.10;30.50;;;;;;492826;241;1189;-76
2022/01/17 00:53:49;;;;;;;;;;;19.00;30.50;;;;;;492907;242;2179;-76
2022/01/17 00:55:50;;;;;;;;;;;19.00;30.50;;;;;;492924;241;1165;-76
2022/01/17 00:57:51;;;;;;;;;;;19.00;30.60;;;;;;492941;242;1079;-76
2022/01/17 00:59:53;;;;;;;;;;;18.90;30.70;;;;;;492942;241;1048;-76
2022/01/17 01:01:54;;;;;;;;;;;19.00;30.50;;;;;;492830;242;1197;-76
2022/01/17 01:03:55;;;;;;;;;;;19.20;30.50;;;;;;492933;241;943;-76
2022/01/17 01:05:57;;;;;;;;;;;19.10;30.30;;;;;;492847;242;1117;-76
2022/01/17 01:07:58;;;;;;;;;;;19.10;30.40;;;;;;492914;241;1154;-76
2022/01/17 01:10:03;;;;;;;;;;;19.20;30.30;;;;;;492915;242;1116;-75
2022/01/17 01:12:01;;;;;;;;;;;19.10;30.40;;;;;;492555;242;1485;-76
2022/01/17 01:14:02;;;;;;;;;;;18.90;30.60;;;;;;492935;241;2195;-76
2022/01/17 01:16:22;;;;;;;;;;;18.90;30.70;;;;;;492785;242;1285;-75
2022/01/17 01:18:15;;;;;;;;;;;18.90;30.80;;;;;;492026;242;1509;-76
2022/01/17 01:20:23;;;;;;;;;;;18.80;30.80;;;;;;492935;241;1599;-76
2022/01/17 01:29:15;;;;;;;;;;;19.10;30.60;;;;;;492859;241;946;-76
2022/01/17 01:31:21;;;;;;;;;;;19.20;30.30;;;;;;492831;242;1064;-76
2022/01/17 01:33:24;;;;;;;;;;;19.30;30.20;;;;;;492557;242;2124;-76
2022/01/17 01:35:21;;;;;;;;;;;19.20;30.20;;;;;;492375;242;2022;-76
2022/01/17 01:37:20;;;;;;;;;;;19.20;30.30;;;;;;492573;242;1480;-76
2022/01/17 01:39:24;;;;;;;;;;;19.10;30.40;;;;;;492872;242;1048;-76
2022/01/17 01:41:23;;;;;;;;;;;19.00;30.60;;;;;;492694;242;1396;-76
2022/01/17 01:43:24;;;;;;;;;;;19.00;30.50;;;;;;492907;241;1026;-76
2022/01/17 01:45:27;;;;;;;;;;;19.10;30.40;;;;;;492820;242;1010;-76
2022/01/17 01:47:27;;;;;;;;;;;19.20;30.30;;;;;;492655;242;1496;-76
2022/01/17 01:49:28;;;;;;;;;;;19.10;30.30;;;;;;492894;241;1060;-76
2022/01/17 01:51:29;;;;;;;;;;;19.30;30.20;;;;;;492729;242;1198;-76
2022/01/17 01:53:30;;;;;;;;;;;19.20;30.10;;;;;;492833;242;2195;-76
2022/01/17 01:55:32;;;;;;;;;;;19.20;30.10;;;;;;492889;241;1170;-76
2022/01/17 01:57:33;;;;;;;;;;;19.10;30.20;;;;;;492877;241;1136;-76
2022/01/17 01:59:37;;;;;;;;;;;19.00;30.20;;;;;;492896;242;1076;-76
2022/01/17 02:01:36;;;;;;;;;;;19.00;30.30;;;;;;492634;242;1429;-76
2022/01/17 02:03:37;;;;;;;;;;;19.00;30.40;;;;;;492805;242;986;-76
2022/01/17 02:05:39;;;;;;;;;;;19.00;30.30;;;;;;492855;242;1201;-76
2022/01/17 02:07:40;;;;;;;;;;;19.10;30.30;;;;;;492830;242;1058;-76
2022/01/17 02:09:42;;;;;;;;;;;19.30;30.00;;;;;;492945;241;1102;-76
2022/01/17 02:11:43;;;;;;;;;;;19.30;30.00;;;;;;492816;242;1302;-76
2022/01/17 02:13:46;;;;;;;;;;;19.20;30.00;;;;;;492888;242;2192;-76
2022/01/17 02:15:47;;;;;;;;;;;19.20;30.00;;;;;;492872;241;1488;-76
2022/01/17 02:17:53;;;;;;;;;;;19.10;30.10;;;;;;492760;242;1470;-75
2022/01/17 02:19:48;;;;;;;;;;;19.20;30.00;;;;;;492512;241;1546;-76
2022/01/17 02:21:49;;;;;;;;;;;19.10;30.10;;;;;;492774;242;1203;-76
2022/01/17 02:23:51;;;;;;;;;;;19.00;30.10;;;;;;492846;241;1098;-76
2022/01/17 02:25:55;;;;;;;;;;;19.10;30.10;;;;;;492786;242;1189;-76
2022/01/17 02:27:54;;;;;;;;;;;19.10;30.00;;;;;;492564;242;1378;-76
2022/01/17 02:29:55;;;;;;;;;;;19.20;30.00;;;;;;492856;242;947;-76
2022/01/17 02:31:56;;;;;;;;;;;19.30;29.80;;;;;;492873;242;1222;-76
2022/01/17 02:33:57;;;;;;;;;;;19.20;29.90;;;;;;492877;242;2175;-76
2022/01/17 02:35:59;;;;;;;;;;;19.10;30.00;;;;;;492844;242;1460;-76
2022/01/17 02:38:00;;;;;;;;;;;19.00;30.10;;;;;;492848;242;1104;-76
2022/01/17 02:40:01;;;;;;;;;;;19.00;30.00;;;;;;492877;241;1075;-76
2022/01/17 02:42:03;;;;;;;;;;;19.00;30.00;;;;;;492825;242;1262;-75
2022/01/17 02:44:04;;;;;;;;;;;19.00;30.00;;;;;;492933;241;936;-76
2022/01/17 02:48:25;;;;;;;;;;;19.20;29.90;;;;;;492898;242;1070;-76
2022/01/17 02:50:26;;;;;;;;;;;19.20;29.90;;;;;;492882;241;939;-76
2022/01/17 02:52:27;;;;;;;;;;;19.30;29.80;;;;;;492865;242;1189;-76
2022/01/17 02:54:29;;;;;;;;;;;19.20;29.80;;;;;;492869;241;2202;-76
2022/01/17 02:56:30;;;;;;;;;;;19.40;29.70;;;;;;492845;241;1246;-76
2022/01/17 02:58:32;;;;;;;;;;;19.10;29.80;;;;;;492903;242;1373;-76
2022/01/17 03:00:33;;;;;;;;;;;19.10;29.90;;;;;;492844;242;1495;-76
2022/01/17 03:02:34;;;;;;;;;;;19.10;30.00;;;;;;492842;242;1125;-76
2022/01/17 03:04:35;;;;;;;;;;;19.10;29.90;;;;;;492983;241;1056;-76
2022/01/17 03:06:37;;;;;;;;;;;19.20;29.90;;;;;;492796;242;1095;-76
2022/01/17 03:08:38;;;;;;;;;;;19.10;29.90;;;;;;492886;241;1051;-76
2022/01/17 03:10:40;;;;;;;;;;;19.40;29.70;;;;;;492858;241;1035;-76
2022/01/17 03:12:41;;;;;;;;;;;19.20;29.70;;;;;;492837;242;1129;-75
2022/01/17 03:14:42;;;;;;;;;;;19.20;29.80;;;;;;492888;242;2195;-76
2022/01/17 03:16:46;;;;;;;;;;;19.10;29.90;;;;;;492808;242;1109;-76
2022/01/17 03:18:45;;;;;;;;;;;19.00;29.90;;;;;;492752;242;1298;-76
2022/01/17 03:20:46;;;;;;;;;;;19.00;29.90;;;;;;492855;242;1115;-76
2022/01/17 03:22:48;;;;;;;;;;;19.10;29.90;;;;;;492784;242;1097;-76
2022/01/17 03:24:49;;;;;;;;;;;19.10;29.90;;;;;;492921;242;1069;-76
2022/01/17 03:26:51;;;;;;;;;;;19.10;29.80;;;;;;492919;241;1133;-76
2022/01/17 03:28:52;;;;;;;;;;;19.10;29.70;;;;;;492886;242;941;-76
2022/01/17 03:30:53;;;;;;;;;;;19.10;29.80;;;;;;492796;242;1221;-76
2022/01/17 03:32:55;;;;;;;;;;;19.20;29.70;;;;;;492860;242;1056;-75
2022/01/17 03:34:56;;;;;;;;;;;19.20;29.80;;;;;;492919;241;2178;-76
2022/01/17 03:36:57;;;;;;;;;;;19.10;29.70;;;;;;492831;242;1299;-76
2022/01/17 03:38:59;;;;;;;;;;;19.20;29.70;;;;;;492869;242;1035;-76
2022/01/17 03:41:01;;;;;;;;;;;19.10;29.70;;;;;;492904;241;1240;-76
2022/01/17 03:43:01;;;;;;;;;;;19.20;29.70;;;;;;492886;242;1376;-75
2022/01/17 03:45:04;;;;;;;;;;;19.10;29.70;;;;;;492924;241;936;-76
2022/01/17 03:47:04;;;;;;;;;;;19.10;29.70;;;;;;492821;242;1468;-76
2022/01/17 03:49:05;;;;;;;;;;;19.20;29.70;;;;;;492852;242;1064;-75
2022/01/17 03:51:07;;;;;;;;;;;19.20;29.70;;;;;;492830;241;1178;-76
2022/01/17 03:53:08;;;;;;;;;;;19.10;29.70;;;;;;492879;242;1010;-76
2022/01/17 03:55:09;;;;;;;;;;;19.10;29.70;;;;;;492931;242;2109;-76
2022/01/17 03:57:11;;;;;;;;;;;19.00;29.80;;;;;;492898;241;1232;-76
2022/01/17 03:59:12;;;;;;;;;;;19.00;29.80;;;;;;492919;242;1203;-76
2022/01/17 04:01:13;;;;;;;;;;;19.00;29.90;;;;;;492868;241;1198;-76
2022/01/17 04:03:15;;;;;;;;;;;19.00;29.80;;;;;;492896;241;1071;-75
2022/01/17 04:05:16;;;;;;;;;;;19.00;29.90;;;;;;492866;241;1113;-76
2022/01/17 04:07:17;;;;;;;;;;;19.10;29.70;;;;;;492820;241;1166;-76
2022/01/17 04:09:19;;;;;;;;;;;19.20;29.80;;;;;;492858;242;995;-75
2022/01/17 04:11:20;;;;;;;;;;;19.10;29.70;;;;;;492855;242;1192;-76
2022/01/17 04:13:22;;;;;;;;;;;19.00;29.80;;;;;;492984;241;1165;-76
2022/01/17 04:15:23;;;;;;;;;;;18.90;29.80;;;;;;492885;242;2170;-75
2022/01/17 04:17:27;;;;;;;;;;;18.90;29.90;;;;;;492860;242;1031;-76
2022/01/17 04:19:25;;;;;;;;;;;18.80;29.90;;;;;;492739;242;1379;-75
2022/01/17 04:21:32;;;;;;;;;;;18.80;29.90;;;;;;492795;241;1237;-76
2022/01/17 04:23:28;;;;;;;;;;;18.90;29.90;;;;;;492566;242;1387;-76
2022/01/17 04:25:30;;;;;;;;;;;18.80;29.90;;;;;;492865;242;1122;-76
2022/01/17 04:27:31;;;;;;;;;;;18.80;29.90;;;;;;492882;241;1130;-76
2022/01/17 04:29:32;;;;;;;;;;;18.90;29.80;;;;;;492884;242;1032;-76
2022/01/17 04:31:34;;;;;;;;;;;18.90;29.90;;;;;;492786;241;1319;-76
2022/01/17 04:33:35;;;;;;;;;;;18.90;29.90;;;;;;492902;242;1073;-75
2022/01/17 04:35:36;;;;;;;;;;;18.90;29.80;;;;;;492840;242;2108;-75
2022/01/17 04:37:37;;;;;;;;;;;19.00;29.80;;;;;;492782;241;1205;-75
2022/01/17 04:39:39;;;;;;;;;;;19.00;29.80;;;;;;492880;242;969;-75
2022/01/17 04:41:40;;;;;;;;;;;19.00;29.80;;;;;;492823;242;1248;-76
2022/01/17 04:43:57;;;;;;;;;;;18.90;29.90;;;;;;492886;242;1169;-76
2022/01/17 04:45:47;;;;;;;;;;;18.90;29.90;;;;;;492139;242;1650;-75
2022/01/17 04:47:48;;;;;;;;;;;19.00;29.80;;;;;;492791;241;1131;-76
2022/01/17 04:49:49;;;;;;;;;;;18.80;29.80;;;;;;492846;241;954;-76
2022/01/17 04:51:53;;;;;;;;;;;18.80;29.90;;;;;;492819;242;1190;-76
2022/01/17 04:54:14;;;;;;;;;;;18.80;30.00;;;;;;492759;242;1373;-76
2022/01/17 04:55:57;;;;;;;;;;;18.80;30.00;;;;;;491608;242;2180;-76
2022/01/17 04:57:59;;;;;;;;;;;18.80;29.90;;;;;;492796;241;1109;-76
2022/01/17 05:00:00;;;;;;;;;;;18.70;30.00;;;;;;492837;242;1063;-75
2022/01/17 05:02:01;;;;;;;;;;;18.70;30.00;;;;;;492749;241;1204;-75
2022/01/17 05:04:03;;;;;;;;;;;18.80;30.00;;;;;;492810;242;968;-75
2022/01/17 05:06:04;;;;;;;;;;;18.80;30.00;;;;;;492793;242;1194;-76
2022/01/17 05:08:05;;;;;;;;;;;18.80;30.00;;;;;;492812;241;1145;-76
2022/01/17 05:10:06;;;;;;;;;;;18.90;30.00;;;;;;492930;241;971;-76
2022/01/17 05:12:08;;;;;;;;;;;18.80;30.00;;;;;;492892;241;1136;-76
2022/01/17 05:14:10;;;;;;;;;;;18.80;30.00;;;;;;492860;242;1165;-76
2022/01/17 05:16:14;;;;;;;;;;;18.70;30.00;;;;;;492773;242;2129;-76
2022/01/17 05:18:25;;;;;;;;;;;18.70;30.10;;;;;;492665;241;1314;-76
2022/01/17 05:20:14;;;;;;;;;;;18.70;30.10;;;;;;492143;242;1405;-76
2022/01/17 05:22:16;;;;;;;;;;;18.80;30.00;;;;;;492730;241;1054;-76
2022/01/17 05:24:17;;;;;;;;;;;18.80;30.10;;;;;;492828;241;987;-76
2022/01/17 05:26:19;;;;;;;;;;;18.70;30.00;;;;;;492766;242;1117;-76
2022/01/17 05:28:20;;;;;;;;;;;18.80;30.10;;;;;;492799;242;1140;-76
2022/01/17 05:30:21;;;;;;;;;;;18.70;30.10;;;;;;492878;241;1052;-76
2022/01/17 05:32:22;;;;;;;;;;;18.70;30.10;;;;;;492690;242;1135;-76
2022/01/17 05:34:24;;;;;;;;;;;18.70;30.00;;;;;;492831;241;1061;-76
2022/01/17 05:36:25;;;;;;;;;;;18.70;30.10;;;;;;492696;241;2175;-76
2022/01/17 05:38:26;;;;;;;;;;;18.70;30.10;;;;;;492822;241;1011;-76
2022/01/17 05:40:28;;;;;;;;;;;18.80;30.00;;;;;;492791;241;1039;-76
2022/01/17 05:42:30;;;;;;;;;;;18.90;30.00;;;;;;492793;242;1151;-76
2022/01/17 05:44:30;;;;;;;;;;;18.80;30.00;;;;;;492800;242;1205;-76
2022/01/17 05:46:32;;;;;;;;;;;18.80;30.10;;;;;;492748;242;1126;-76
2022/01/17 05:48:33;;;;;;;;;;;18.70;30.10;;;;;;492778;241;1058;-76
2022/01/17 05:50:34;;;;;;;;;;;18.70;30.10;;;;;;492722;242;1224;-76
2022/01/17 05:52:36;;;;;;;;;;;18.80;30.00;;;;;;492615;242;1327;-76
2022/01/17 05:54:37;;;;;;;;;;;18.80;30.10;;;;;;492653;241;968;-76
2022/01/17 05:56:38;;;;;;;;;;;18.80;30.10;;;;;;492646;241;2180;-76
2022/01/17 05:58:40;;;;;;;;;;;18.80;30.10;;;;;;492730;241;1149;-76
2022/01/17 06:00:41;;;;;;;;;;;18.80;30.10;;;;;;492632;242;1336;-76
2022/01/17 06:02:42;;;;;;;;;;;18.70;30.10;;;;;;492521;241;990;-76
2022/01/17 06:04:44;;;;;;;;;;;18.70;30.10;;;;;;492495;242;1242;-76
2022/01/17 06:06:45;;;;;;;;;;;18.80;30.10;;;;;;492634;241;1217;-76
2022/01/17 06:08:46;;;;;;;;;;;18.70;30.20;;;;;;492655;242;1106;-76
2022/01/17 06:10:48;;;;;;;;;;;18.70;30.20;;;;;;492660;242;1236;-76
2022/01/17 06:12:49;;;;;;;;;;;18.70;30.20;;;;;;492560;241;1015;-76
2022/01/17 06:14:51;;;;;;;;;;;18.70;30.30;;;;;;492569;242;1142;-76
2022/01/17 06:16:52;;;;;;;;;;;18.70;30.30;;;;;;492520;241;2197;-75
2022/01/17 06:18:53;;;;;;;;;;;18.70;30.30;;;;;;492484;241;1050;-76
2022/01/17 06:20:54;;;;;;;;;;;18.70;30.20;;;;;;492462;241;1154;-76
2022/01/17 06:22:56;;;;;;;;;;;18.80;30.20;;;;;;492578;242;1025;-76
2022/01/17 06:24:57;;;;;;;;;;;18.80;30.20;;;;;;492603;241;971;-76
2022/01/17 06:26:59;;;;;;;;;;;18.70;30.30;;;;;;492608;241;1206;-76
2022/01/17 06:29:00;;;;;;;;;;;18.80;30.20;;;;;;492612;242;1140;-76
2022/01/17 06:31:02;;;;;;;;;;;18.70;30.20;;;;;;492642;241;1221;-76
2022/01/17 06:33:03;;;;;;;;;;;18.70;30.40;;;;;;492703;242;1074;-76
2022/01/17 06:35:04;;;;;;;;;;;18.70;30.40;;;;;;492668;242;2187;-76
2022/01/17 06:37:05;;;;;;;;;;;18.70;30.40;;;;;;492575;241;1094;-76
2022/01/17 06:39:07;;;;;;;;;;;18.80;30.30;;;;;;492590;242;963;-76
2022/01/17 06:41:08;;;;;;;;;;;18.80;30.40;;;;;;492492;241;1101;-76
2022/01/17 06:43:10;;;;;;;;;;;18.70;30.30;;;;;;492498;242;1071;-76
2022/01/17 06:45:13;;;;;;;;;;;18.90;30.30;;;;;;492438;242;1570;-76
2022/01/17 06:47:12;;;;;;;;;;;18.80;30.20;;;;;;492392;242;1419;-76
2022/01/17 06:49:13;;;;;;;;;;;18.80;30.20;;;;;;492610;242;970;-76
2022/01/17 06:51:15;;;;;;;;;;;18.80;30.30;;;;;;492494;241;1434;-76
2022/01/17 06:53:16;;;;;;;;;;;18.80;30.30;;;;;;492326;242;1121;-76
2022/01/17 06:55:17;;;;;;;;;;;18.80;30.40;;;;;;492294;242;2180;-76
2022/01/17 06:57:19;;;;;;;;;;;18.70;30.40;;;;;;492391;242;1304;-77
2022/01/17 06:59:20;;;;;;;;;;;18.70;30.50;;;;;;492441;241;1144;-76
2022/01/17 07:01:21;;;;;;;;;;;18.70;30.50;;;;;;492344;242;1443;-76
2022/01/17 07:03:23;;;;;;;;;;;18.80;30.40;;;;;;492300;241;1151;-76
2022/01/17 07:05:24;;;;;;;;;;;18.70;30.50;;;;;;492347;242;1030;-76
2022/01/17 07:07:25;;;;;;;;;;;18.80;30.50;;;;;;492390;242;1268;-76
2022/01/17 07:09:26;;;;;;;;;;;18.70;30.60;;;;;;492471;241;1038;-76
2022/01/17 07:11:28;;;;;;;;;;;18.70;30.60;;;;;;492486;241;1209;-75
2022/01/17 07:13:29;;;;;;;;;;;18.70;30.50;;;;;;492393;242;1041;-76
2022/01/17 07:15:30;;;;;;;;;;;18.80;30.40;;;;;;492462;242;2171;-75
2022/01/17 07:17:32;;;;;;;;;;;19.00;30.20;;;;;;492389;242;1455;-75
2022/01/17 07:19:33;;;;;;;;;;;19.20;30.10;;;;;;492354;241;1073;-76
2022/01/17 07:21:35;;;;;;;;;;;19.20;30.00;;;;;;492353;241;1204;-76
2022/01/17 07:23:36;;;;;;;;;;;19.30;30.00;;;;;;492401;241;976;-76
2022/01/17 07:25:38;;;;;;;;;;;19.20;30.00;;;;;;492374;242;1097;-76
2022/01/17 07:27:40;;;;;;;;;;;19.10;30.10;;;;;;492233;242;1987;-76
2022/01/17 07:29:42;;;;;;;;;;;19.30;30.10;;;;;;492190;242;1164;-76
2022/01/17 07:31:42;;;;;;;;;;;19.10;30.00;;;;;;492177;242;1899;-76
2022/01/17 07:33:43;;;;;;;;;;;19.20;30.10;;;;;;492168;242;1019;-75
2022/01/17 07:35:45;;;;;;;;;;;19.00;30.10;;;;;;492112;241;2120;-76
2022/01/17 07:37:46;;;;;;;;;;;19.00;30.20;;;;;;492254;242;1372;-76
2022/01/17 07:39:47;;;;;;;;;;;19.00;30.30;;;;;;492307;242;1107;-75
2022/01/17 07:41:49;;;;;;;;;;;19.00;30.30;;;;;;492286;241;1159;-76
2022/01/17 07:43:51;;;;;;;;;;;19.00;30.30;;;;;;492150;242;1120;-76
2022/01/17 07:46:03;;;;;;;;;;;19.00;30.30;;;;;;491967;241;1421;-75
2022/01/17 07:48:33;;;;;;;;;;;18.90;30.30;;;;;;491897;242;1260;-76
2022/01/17 07:50:13;;;;;;;;;;;19.00;30.30;;;;;;490902;242;1167;-75
2022/01/17 07:52:14;;;;;;;;;;;19.10;30.10;;;;;;492317;241;1181;-75
2022/01/17 07:54:15;;;;;;;;;;;19.20;30.10;;;;;;492287;242;1213;-76
2022/01/17 07:56:17;;;;;;;;;;;19.30;30.00;;;;;;492099;242;2195;-75
2022/01/17 07:58:18;;;;;;;;;;;19.20;30.00;;;;;;492011;241;1085;-76
2022/01/17 08:00:22;;;;;;;;;;;19.10;30.10;;;;;;491934;241;1308;-75
2022/01/17 08:02:21;;;;;;;;;;;19.10;30.20;;;;;;491843;242;1323;-76
2022/01/17 08:04:22;;;;;;;;;;;19.00;30.30;;;;;;492089;241;1103;-76
2022/01/17 08:06:24;;;;;;;;;;;19.10;30.30;;;;;;491970;242;1453;-76
2022/01/17 08:08:25;;;;;;;;;;;19.00;30.30;;;;;;492118;241;1011;-76
2022/01/17 08:10:26;;;;;;;;;;;19.10;30.40;;;;;;491876;242;957;-75
2022/01/17 08:12:28;;;;;;;;;;;19.10;30.20;;;;;;491970;241;1197;-75
2022/01/17 08:14:29;;;;;;;;;;;19.20;30.20;;;;;;492005;242;1157;-75
2022/01/17 08:16:30;;;;;;;;;;;19.10;30.20;;;;;;491832;242;2191;-75
2022/01/17 08:18:32;;;;;;;;;;;19.40;30.10;;;;;;492033;241;1112;-76
2022/01/17 08:20:33;;;;;;;;;;;19.20;30.20;;;;;;491952;242;1095;-75
2022/01/17 08:22:34;;;;;;;;;;;19.20;30.30;;;;;;491747;241;1206;-75
2022/01/17 08:24:36;;;;;;;;;;;19.10;30.30;;;;;;491737;242;1058;-76
2022/01/17 08:26:42;;;;;;;;;;;19.00;30.40;;;;;;491871;241;1380;-76
2022/01/17 08:28:40;;;;;;;;;;;19.00;30.50;;;;;;491709;242;1512;-75
2022/01/17 08:30:40;;;;;;;;;;;19.10;30.50;;;;;;491824;242;1386;-75
2022/01/17 08:32:41;;;;;;;;;;;19.10;30.50;;;;;;491931;241;1053;-76
2022/01/17 08:34:42;;;;;;;;;;;19.20;30.50;;;;;;491702;241;1158;-76
2022/01/17 08:36:43;;;;;;;;;;;19.20;30.50;;;;;;491787;241;2100;-75
2022/01/17 08:38:45;;;;;;;;;;;19.20;30.40;;;;;;491945;242;1094;-75
2022/01/17 08:40:46;;;;;;;;;;;19.20;30.40;;;;;;491828;241;1088;-76
2022/01/17 08:42:49;;;;;;;;;;;19.10;30.40;;;;;;492026;242;1170;-76
2022/01/17 08:44:51;;;;;;;;;;;19.10;30.60;;;;;;491947;242;1356;-76
2022/01/17 08:46:51;;;;;;;;;;;19.10;30.70;;;;;;491930;242;1951;-76
2022/01/17 08:48:53;;;;;;;;;;;19.10;30.60;;;;;;492053;241;947;-75
2022/01/17 08:50:53;;;;;;;;;;;19.20;30.50;;;;;;491774;242;1341;-75
2022/01/17 08:52:55;;;;;;;;;;;19.40;30.30;;;;;;492171;241;1384;-75
2022/01/17 08:54:57;;;;;;;;;;;19.20;30.40;;;;;;492063;241;1258;-75
2022/01/17 08:56:57;;;;;;;;;;;19.20;30.50;;;;;;491966;241;2133;-76
2022/01/17 08:58:59;;;;;;;;;;;19.20;30.50;;;;;;492050;242;998;-75
2022/01/17 09:01:00;;;;;;;;;;;19.20;30.70;;;;;;491951;242;1217;-76
2022/01/17 09:03:02;;;;;;;;;;;19.10;30.80;;;;;;491966;242;1214;-76
2022/01/17 09:05:03;;;;;;;;;;;19.00;30.90;;;;;;492076;241;1280;-75
2022/01/17 09:07:04;;;;;;;;;;;19.00;31.00;;;;;;492037;242;1091;-75
2022/01/17 09:09:06;;;;;;;;;;;19.10;30.90;;;;;;492102;242;1053;-76
2022/01/17 09:11:07;;;;;;;;;;;19.10;30.80;;;;;;491988;242;1133;-75
2022/01/17 09:13:08;;;;;;;;;;;19.10;30.80;;;;;;491867;242;1135;-75
2022/01/17 09:15:10;;;;;;;;;;;19.20;30.80;;;;;;491979;242;1122;-76
2022/01/17 09:17:11;;;;;;;;;;;19.30;30.70;;;;;;491954;242;2195;-76
2022/01/17 09:19:13;;;;;;;;;;;19.40;30.70;;;;;;491812;241;1179;-76
2022/01/17 09:21:14;;;;;;;;;;;19.40;30.70;;;;;;491820;241;1201;-76
2022/01/17 09:23:15;;;;;;;;;;;19.30;30.60;;;;;;492049;241;1048;-76
2022/01/17 09:25:16;;;;;;;;;;;19.40;30.60;;;;;;491824;241;1098;-76
2022/01/17 09:27:18;;;;;;;;;;;19.40;30.60;;;;;;491842;241;1227;-75
2022/01/17 09:29:19;;;;;;;;;;;19.50;30.60;;;;;;491955;242;958;-76
2022/01/17 09:31:20;;;;;;;;;;;19.70;30.40;;;;;;491939;242;1205;-76
2022/01/17 09:33:22;;;;;;;;;;;19.70;30.10;;;;;;492220;241;1170;-75
2022/01/17 09:35:23;;;;;;;;;;;19.90;30.20;;;;;;492068;242;1065;-76
2022/01/17 09:37:24;;;;;;;;;;;19.80;30.20;;;;;;492039;242;2187;-75
2022/01/17 09:39:26;;;;;;;;;;;20.00;30.00;;;;;;492014;242;1256;-76
2022/01/17 09:41:27;;;;;;;;;;;19.90;30.10;;;;;;492039;242;1082;-76
2022/01/17 09:43:28;;;;;;;;;;;20.40;29.90;;;;;;491943;242;1219;-76
2022/01/17 09:45:30;;;;;;;;;;;20.20;29.70;;;;;;492050;241;1267;-76
2022/01/17 09:47:33;;;;;;;;;;;20.50;29.70;;;;;;492001;242;1180;-76
2022/01/17 09:49:37;;;;;;;;;;;20.40;29.80;;;;;;491966;241;1372;-76
2022/01/17 09:51:41;;;;;;;;;;;20.40;29.80;;;;;;491838;242;1384;-76
2022/01/17 09:53:40;;;;;;;;;;;20.40;29.80;;;;;;491529;241;1365;-76
2022/01/17 09:55:41;;;;;;;;;;;20.70;29.60;;;;;;491658;242;1522;-76
2022/01/17 09:57:42;;;;;;;;;;;20.60;29.50;;;;;;491912;241;2191;-76
2022/01/17 09:59:44;;;;;;;;;;;20.90;29.30;;;;;;491961;242;976;-76
2022/01/17 10:01:45;;;;;;;;;;;21.00;29.20;;;;;;491961;241;1330;-76
2022/01/17 10:03:46;;;;;;;;;;;21.10;29.00;;;;;;491758;242;1152;-76
2022/01/17 10:05:48;;;;;;;;;;;21.40;28.90;;;;;;491836;242;1528;-76
2022/01/17 10:07:49;;;;;;;;;;;21.60;28.60;;;;;;492000;242;1096;-76
2022/01/17 10:09:51;;;;;;;;;;;21.30;28.80;;;;;;491926;241;1089;-76
2022/01/17 10:11:53;;;;;;;;;;;21.40;29.00;;;;;;492201;242;1620;-76
2022/01/17 10:13:53;;;;;;;;;;;21.60;28.70;;;;;;491937;242;1448;-76
2022/01/17 10:15:55;;;;;;;;;;;22.00;28.50;;;;;;491980;241;1317;-76
2022/01/17 10:17:56;;;;;;;;;;;22.10;28.20;;;;;;492070;242;2131;-76
2022/01/17 10:19:57;;;;;;;;;;;22.00;28.30;;;;;;492026;241;1072;-76
2022/01/17 10:22:01;;;;;;;;;;;22.10;28.20;;;;;;491928;241;1352;-76
2022/01/17 10:26:36;;;;;;;;;;;22.10;28.30;;;;;;491985;241;1475;-76
2022/01/17 10:28:58;;;;;;;;;;;22.30;28.20;;;;;;491360;242;1237;-76
2022/01/17 10:31:02;;;;;;;;;;;22.10;28.30;;;;;;490800;242;1547;-76
2022/01/17 10:35:07;;;;;;;;;;;22.10;28.40;;;;;;491884;242;974;-76
2022/01/17 10:37:09;;;;;;;;;;;22.20;28.30;;;;;;492100;241;2191;-76
2022/01/17 10:39:10;;;;;;;;;;;22.40;28.20;;;;;;491880;241;1432;-76
2022/01/17 10:41:13;;;;;;;;;;;22.40;28.00;;;;;;491918;242;1218;-76
2022/01/17 10:43:13;;;;;;;;;;;22.60;28.00;;;;;;491933;241;1324;-76
2022/01/17 10:45:14;;;;;;;;;;;22.40;27.90;;;;;;491922;241;960;-76
2022/01/17 10:47:16;;;;;;;;;;;22.80;27.90;;;;;;492192;242;1114;-76
2022/01/17 10:49:17;;;;;;;;;;;23.00;27.50;;;;;;492392;242;939;-76
2022/01/17 10:51:20;;;;;;;;;;;23.10;27.50;;;;;;492154;241;1496;-76
2022/01/17 10:53:20;;;;;;;;;;;22.60;27.70;;;;;;491811;241;1317;-76
2022/01/17 10:55:21;;;;;;;;;;;22.60;28.00;;;;;;491866;241;952;-76
2022/01/17 10:57:22;;;;;;;;;;;21.90;28.30;;;;;;492085;242;2182;-76
2022/01/17 10:59:24;;;;;;;;;;;22.00;28.60;;;;;;491799;241;1390;-76
2022/01/17 11:01:25;;;;;;;;;;;21.70;28.70;;;;;;491923;242;1484;-76
2022/01/17 11:03:26;;;;;;;;;;;22.00;28.60;;;;;;491970;241;1116;-76
2022/01/17 11:05:28;;;;;;;;;;;21.80;28.60;;;;;;491914;241;1041;-76
2022/01/17 11:07:29;;;;;;;;;;;21.50;28.90;;;;;;491944;242;1191;-76
2022/01/17 11:09:31;;;;;;;;;;;21.00;29.30;;;;;;491935;242;1140;-75
2022/01/17 11:11:32;;;;;;;;;;;20.90;29.50;;;;;;491847;242;1143;-75
2022/01/17 11:13:34;;;;;;;;;;;21.40;29.30;;;;;;492046;241;1091;-76
2022/01/17 11:15:35;;;;;;;;;;;21.50;29.00;;;;;;491825;242;1065;-76
2022/01/17 11:17:38;;;;;;;;;;;21.70;28.90;;;;;;491950;241;2183;-76
2022/01/17 11:21:57;;;;;;;;;;;22.00;28.60;;;;;;492126;242;1156;-76
2022/01/17 11:23:58;;;;;;;;;;;21.90;28.60;;;;;;492167;241;1167;-75
2022/01/17 11:25:59;;;;;;;;;;;22.00;28.40;;;;;;491731;241;1071;-76
2022/01/17 11:28:01;;;;;;;;;;;21.90;28.60;;;;;;492195;242;1106;-75
2022/01/17 11:30:02;;;;;;;;;;;22.00;28.50;;;;;;492099;241;980;-76
2022/01/17 11:32:04;;;;;;;;;;;21.70;28.60;;;;;;492191;242;1161;-76
2022/01/17 11:34:09;;;;;;;;;;;21.70;28.70;;;;;;491898;242;1028;-76
2022/01/17 11:36:06;;;;;;;;;;;22.00;28.60;;;;;;491338;242;1394;-76
2022/01/17 11:38:07;;;;;;;;;;;22.10;28.30;;;;;;492010;241;2175;-76
2022/01/17 11:40:09;;;;;;;;;;;21.50;28.70;;;;;;491931;242;1014;-76
2022/01/17 11:42:11;;;;;;;;;;;22.00;28.50;;;;;;492120;242;1201;-76
2022/01/17 11:44:11;;;;;;;;;;;21.60;28.90;;;;;;491895;241;1252;-76
2022/01/17 11:46:13;;;;;;;;;;;21.80;28.80;;;;;;491994;242;1211;-76
2022/01/17 11:48:14;;;;;;;;;;;21.90;28.70;;;;;;492026;241;1189;-76
2022/01/17 11:50:15;;;;;;;;;;;21.70;28.70;;;;;;492050;241;1030;-76
2022/01/17 11:52:17;;;;;;;;;;;21.70;28.60;;;;;;492125;242;1285;-76
2022/01/17 11:54:18;;;;;;;;;;;22.00;28.60;;;;;;492005;242;984;-76
2022/01/17 11:56:19;;;;;;;;;;;22.30;28.40;;;;;;491952;242;1022;-76
2022/01/17 11:58:21;;;;;;;;;;;22.00;28.30;;;;;;491908;242;2108;-76
2022/01/17 12:00:22;;;;;;;;;;;22.50;28.20;;;;;;491895;241;1030;-76
2022/01/17 12:02:24;;;;;;;;;;;22.30;28.30;;;;;;491926;242;1609;-76
2022/01/17 12:04:25;;;;;;;;;;;22.50;28.20;;;;;;491898;241;1154;-76
2022/01/17 12:06:26;;;;;;;;;;;22.50;28.10;;;;;;492044;241;1037;-76
2022/01/17 12:08:28;;;;;;;;;;;22.60;28.10;;;;;;491942;242;996;-76
2022/01/17 12:10:29;;;;;;;;;;;22.60;28.10;;;;;;491909;241;1316;-76
2022/01/17 12:12:31;;;;;;;;;;;22.80;28.00;;;;;;492021;242;1391;-76
2022/01/17 12:14:33;;;;;;;;;;;22.70;27.90;;;;;;492014;242;1357;-76
2022/01/17 12:16:36;;;;;;;;;;;23.00;27.80;;;;;;491918;242;1301;-76